Time;durP1;ratioP1;P1;durP2;ratioP2;P2;SDS_P1;SDS_P2;PMS_P1;PMS_P2;Temp;Humidity;BMP_temperature;BMP_pressure;BME280_temperature;BME280_humidity;BME280_pressure;Samples;Min_cycle;Max_cycle;Signal;HPM_P1;HPM_P2
2022/08/06 00:02:28;;;;;;;2.92;1.73;;;;;;;26.25;38.95;99244.69;4463035;32;34154;-80
2022/08/06 00:05:01;;;;;;;4.65;1.60;;;;;;;26.35;38.92;99248.25;4462006;32;34015;-79
2022/08/06 00:07:32;;;;;;;3.00;1.75;;;;;;;26.33;39.32;99242.19;4466231;32;34186;-78
2022/08/06 00:10:13;;;;;;;5.03;1.83;;;;;;;26.35;39.11;99245.56;4463625;32;34477;-79
2022/08/06 00:12:42;;;;;;;2.67;1.52;;;;;;;26.26;39.53;99243.69;4469964;32;33392;-78
2022/08/06 00:15:17;;;;;;;3.22;1.80;;;;;;;26.21;39.50;99239.75;4468786;31;33809;-80
2022/08/06 00:17:48;;;;;;;3.55;1.90;;;;;;;26.28;39.34;99249.75;4462115;32;34046;-80
2022/08/06 00:20:19;;;;;;;;;;;;;;;26.31;39.09;99251.28;4469792;31;33188;-79
2022/08/06 00:22:59;;;;;;;5.43;1.47;;;;;;;26.27;39.62;99247.22;4468198;31;33887;-80
2022/08/06 00:25:29;;;;;;;3.30;1.67;;;;;;;26.19;39.46;99247.84;4466501;32;33666;-78
2022/08/06 00:28:12;;;;;;;3.22;1.60;;;;;;;26.21;39.78;99250.41;4476494;32;33631;-80
2022/08/06 00:30:41;;;;;;;2.28;1.42;;;;;;;26.28;39.80;99252.41;4466789;32;34141;-78
2022/08/06 00:33:11;;;;;;;2.55;1.35;;;;;;;26.18;39.95;99256.81;4465885;32;32855;-79
2022/08/06 00:35:44;;;;;;;2.53;1.48;;;;;;;26.06;39.84;99255.19;4463646;32;34465;-79
2022/08/06 00:38:13;;;;;;;2.12;1.42;;;;;;;26.07;39.29;99254.22;4461414;32;34602;-80
2022/08/06 00:40:42;;;;;;;2.08;1.40;;;;;;;25.87;40.24;99253.25;4467804;32;34280;-81
2022/08/06 00:43:27;;;;;;;2.28;1.20;;;;;;;25.96;39.55;99255.13;4463833;31;34047;-78
2022/08/06 00:46:08;;;;;;;2.70;1.25;;;;;;;25.85;39.73;99260.47;4461532;31;33965;-80
2022/08/06 00:48:44;;;;;;;2.60;1.50;;;;;;;25.95;40.04;99254.31;4473116;32;33586;-78
2022/08/06 00:51:24;;;;;;;3.10;1.73;;;;;;;25.81;40.17;99257.22;4460054;32;33780;-78
2022/08/06 00:54:13;;;;;;;5.30;1.40;;;;;;;25.79;40.34;99256.53;4471423;32;34140;-78
2022/08/06 00:56:45;;;;;;;4.85;1.80;;;;;;;25.88;39.97;99255.78;4471268;32;34086;-80
2022/08/06 00:59:15;;;;;;;3.35;1.30;;;;;;;25.85;40.25;99248.00;4474042;32;33941;-79
2022/08/06 01:01:43;;;;;;;3.90;1.30;;;;;;;25.79;40.42;99253.87;4463048;32;34563;-78
2022/08/06 01:04:19;;;;;;;2.33;1.55;;;;;;;25.78;40.26;99246.84;4477719;32;31452;-80
2022/08/06 01:06:49;;;;;;;2.35;1.35;;;;;;;25.72;40.43;99244.72;4469956;32;33839;-78
2022/08/06 01:09:24;;;;;;;2.62;1.73;;;;;;;25.69;40.44;99245.81;4467999;32;33702;-78
2022/08/06 01:11:52;;;;;;;2.78;1.58;;;;;;;25.71;40.19;99243.88;4483552;32;34219;-80
2022/08/06 01:14:28;;;;;;;3.30;1.40;;;;;;;25.69;40.28;99239.66;4463829;32;33100;-79
2022/08/06 01:17:12;;;;;;;2.58;1.37;;;;;;;25.77;39.84;99245.16;4479513;32;34428;-79
2022/08/06 01:19:58;;;;;;;3.70;1.67;;;;;;;25.67;39.82;99238.94;4479614;32;33495;-78
2022/08/06 01:23:03;;;;;;;2.55;1.30;;;;;;;25.82;39.56;99235.00;4478029;32;33997;-79
2022/08/06 01:25:58;;;;;;;3.00;1.70;;;;;;;25.79;39.33;99235.25;4463623;32;34178;-78
2022/08/06 01:28:31;;;;;;;1.90;1.40;;;;;;;25.77;39.79;99239.84;4470175;32;34672;-77
2022/08/06 01:31:08;;;;;;;3.55;1.87;;;;;;;25.61;40.43;99244.75;4470371;32;34730;-78
2022/08/06 01:33:40;;;;;;;3.80;1.65;;;;;;;25.70;40.37;99241.34;4470640;32;33106;-78
2022/08/06 01:36:18;;;;;;;4.72;1.45;;;;;;;25.60;40.74;99240.41;4474134;32;33792;-80
2022/08/06 01:38:56;;;;;;;3.03;1.67;;;;;;;25.68;40.66;99246.75;4466474;32;33829;-78
2022/08/06 01:41:40;;;;;;;2.78;1.40;;;;;;;25.46;41.46;99246.87;4463832;32;33434;-78
2022/08/06 01:44:31;;;;;;;2.65;1.35;;;;;;;25.49;41.71;99244.81;4465541;32;33397;-78
2022/08/06 01:47:05;;;;;;;2.95;1.12;;;;;;;25.73;41.43;99241.06;4467012;32;33259;-78
2022/08/06 01:49:48;;;;;;;3.65;1.85;;;;;;;25.61;41.27;99236.78;4466858;32;33491;-79
2022/08/06 01:52:35;;;;;;;3.42;1.48;;;;;;;25.63;41.43;99245.47;4453753;32;33772;-78
2022/08/06 01:55:09;;;;;;;2.95;1.65;;;;;;;25.52;41.36;99241.91;4457046;32;33010;-78
2022/08/06 01:57:47;;;;;;;2.72;1.50;;;;;;;25.38;41.43;99239.53;4466802;32;31782;-78
2022/08/06 02:00:41;;;;;;;2.50;1.65;;;;;;;25.28;41.61;99233.28;4485180;32;33654;-80
2022/08/06 02:03:20;;;;;;;2.42;1.35;;;;;;;25.32;41.39;99235.56;4477777;32;33996;-80
2022/08/06 02:05:52;;;;;;;4.87;1.75;;;;;;;25.49;40.65;99239.50;4465658;32;33872;-79
2022/08/06 02:08:24;;;;;;;3.05;1.77;;;;;;;25.46;40.76;99241.56;4461080;32;34375;-78
2022/08/06 02:11:10;;;;;;;3.05;1.80;;;;;;;25.36;41.07;99240.63;4463036;32;33732;-79
2022/08/06 02:13:59;;;;;;;;;;;;;;;25.33;41.15;99244.38;4463800;32;34712;-79
2022/08/06 02:16:32;;;;;;;4.28;1.70;;;;;;;25.21;41.91;99240.91;4469485;32;34458;-79
2022/08/06 02:19:03;;;;;;;2.92;1.67;;;;;;;25.13;41.81;99248.63;4467671;32;34174;-78
2022/08/06 02:21:43;;;;;;;2.37;1.40;;;;;;;25.08;42.03;99237.50;4462843;32;33759;-79
2022/08/06 02:24:20;;;;;;;3.75;1.83;;;;;;;25.06;42.09;99242.97;4465334;32;33670;-80
2022/08/06 02:26:52;;;;;;;2.83;1.42;;;;;;;25.06;41.74;99237.66;4481554;32;33940;-80
2022/08/06 02:29:21;;;;;;;1.85;1.33;;;;;;;24.98;42.14;99240.06;4478286;32;33201;-80
2022/08/06 02:31:55;;;;;;;3.37;1.85;;;;;;;25.04;42.14;99241.41;4485235;32;32631;-79
2022/08/06 02:34:29;;;;;;;2.47;1.50;;;;;;;25.02;42.24;99241.50;4482907;32;34903;-79
2022/08/06 02:37:04;;;;;;;2.70;1.90;;;;;;;24.95;42.00;99245.63;4479030;32;33880;-80
2022/08/06 02:39:38;;;;;;;3.55;1.45;;;;;;;25.03;41.98;99237.91;4478332;32;33782;-78
2022/08/06 02:42:23;;;;;;;3.30;2.42;;;;;;;24.92;42.13;99243.22;4478009;32;34770;-78
2022/08/06 02:45:01;;;;;;;3.85;1.98;;;;;;;24.81;41.57;99246.72;4478662;32;33987;-79
2022/08/06 02:47:38;;;;;;;2.92;1.62;;;;;;;24.75;42.15;99244.56;4467679;32;33863;-80
2022/08/06 02:50:31;;;;;;;2.65;1.62;;;;;;;24.74;42.25;99242.00;4461494;32;33813;-79
2022/08/06 02:53:06;;;;;;;2.90;1.60;;;;;;;24.83;41.91;99246.59;4469225;32;33583;-80
2022/08/06 02:56:01;;;;;;;3.75;1.70;;;;;;;24.74;42.17;99231.41;4471252;32;33747;-79
2022/08/06 02:58:36;;;;;;;3.72;1.87;;;;;;;24.80;41.63;99237.06;4465207;32;33759;-77
2022/08/06 03:01:10;;;;;;;3.00;1.73;;;;;;;24.76;41.63;99240.94;4463149;32;31629;-78
2022/08/06 03:03:42;;;;;;;3.28;1.58;;;;;;;24.78;41.92;99239.00;4466007;32;34558;-78
2022/08/06 03:06:24;;;;;;;4.72;1.83;;;;;;;24.66;42.17;99239.97;4465245;32;34119;-78
2022/08/06 03:08:55;;;;;;;;;;;;;;;24.71;41.95;99240.44;4467682;32;34748;-79
2022/08/06 03:11:25;;;;;;;2.90;1.40;;;;;;;24.70;42.14;99244.09;4475629;32;33543;-79
2022/08/06 03:14:01;;;;;;;3.95;1.58;;;;;;;24.66;42.19;99238.16;4465381;32;33716;-78
2022/08/06 03:16:41;;;;;;;5.60;1.67;;;;;;;24.69;42.16;99239.72;4471672;32;33540;-79
2022/08/06 03:19:20;;;;;;;2.67;1.40;;;;;;;24.47;42.59;99235.25;4464284;32;34039;-77
2022/08/06 03:22:09;;;;;;;3.30;1.90;;;;;;;24.35;42.79;99241.50;4462961;32;33950;-78
2022/08/06 03:24:46;;;;;;;2.45;1.50;;;;;;;24.41;42.79;99246.34;4463379;32;33990;-80
2022/08/06 03:27:18;;;;;;;5.22;2.00;;;;;;;24.28;43.02;99246.41;4468951;32;34108;-78
2022/08/06 03:29:49;;;;;;;4.93;1.90;;;;;;;24.33;42.90;99251.38;4468849;32;32415;-79
2022/08/06 03:32:26;;;;;;;3.05;1.50;;;;;;;24.37;42.78;99256.31;4476850;32;33469;-78
2022/08/06 03:35:17;;;;;;;2.60;1.80;;;;;;;24.19;43.35;99253.28;4464250;32;33729;-80
2022/08/06 03:38:08;;;;;;;3.17;1.62;;;;;;;24.25;43.30;99258.09;4458052;32;172016;-79
2022/08/06 03:40:37;;;;;;;;;;;;;;;24.16;43.67;99253.53;4475251;32;33997;-78
2022/08/06 03:43:08;;;;;;;;;;;;;;;24.21;43.39;99246.06;4473319;32;33329;-79
2022/08/06 03:45:49;;;;;;;4.40;1.90;;;;;;;24.20;43.33;99248.81;4472747;32;34713;-80
2022/08/06 03:48:26;;;;;;;3.15;1.73;;;;;;;24.36;43.36;99252.00;4481830;32;34627;-80
2022/08/06 03:51:11;;;;;;;2.85;1.65;;;;;;;24.35;43.36;99246.78;4467675;32;33800;-78
2022/08/06 03:53:41;;;;;;;2.70;1.65;;;;;;;24.30;43.43;99247.16;4472026;32;33343;-79
2022/08/06 03:56:23;;;;;;;3.50;2.00;;;;;;;24.31;43.30;99246.19;4472667;32;33653;-80
2022/08/06 03:59:01;;;;;;;3.60;1.85;;;;;;;24.37;43.05;99250.19;4462836;32;33848;-80
2022/08/06 04:01:35;;;;;;;4.00;1.67;;;;;;;24.31;43.42;99243.56;4463412;32;35647;-80
2022/08/06 04:04:19;;;;;;;3.03;1.50;;;;;;;24.40;42.72;99255.22;4462164;32;33260;-78
2022/08/06 04:06:57;;;;;;;3.25;1.77;;;;;;;24.46;42.74;99250.34;4471132;32;34653;-80
2022/08/06 04:09:27;;;;;;;3.83;1.85;;;;;;;24.47;43.18;99246.72;4469977;32;35682;-80
2022/08/06 04:12:16;;;;;;;3.20;1.83;;;;;;;24.69;43.47;99250.34;4476090;32;34283;-79
2022/08/06 04:15:06;;;;;;;2.65;1.48;;;;;;;24.64;43.63;99261.31;4461805;32;34707;-78
2022/08/06 04:17:37;;;;;;;4.07;2.10;;;;;;;24.65;43.26;99263.00;4464154;32;33917;-78
2022/08/06 04:20:09;;;;;;;3.40;1.90;;;;;;;24.59;43.50;99270.59;4469067;32;34807;-78
2022/08/06 04:22:40;;;;;;;3.60;1.70;;;;;;;24.56;42.87;99271.69;4475875;32;35881;-78
2022/08/06 04:25:39;;;;;;;2.83;1.50;;;;;;;24.62;42.59;99262.37;4464884;32;33931;-79
2022/08/06 04:28:12;;;;;;;3.25;1.70;;;;;;;24.70;42.91;99271.44;4472818;32;33779;-78
2022/08/06 04:30:42;;;;;;;3.03;1.55;;;;;;;24.69;42.75;99275.06;4465438;32;32769;-79
2022/08/06 04:33:21;;;;;;;2.95;1.67;;;;;;;24.70;43.19;99273.25;4476158;32;33757;-79
2022/08/06 04:36:05;;;;;;;3.72;1.85;;;;;;;24.70;43.64;99276.75;4471472;32;34200;-78
2022/08/06 04:38:47;;;;;;;2.78;1.50;;;;;;;24.90;42.90;99271.69;4464410;32;34419;-79
2022/08/06 04:41:19;;;;;;;4.22;1.48;;;;;;;24.94;43.44;99275.78;4463960;32;34075;-79
2022/08/06 04:43:49;;;;;;;3.83;1.98;;;;;;;25.15;42.47;99273.22;4471174;32;34356;-78
2022/08/06 04:46:23;;;;;;;3.10;2.00;;;;;;;25.13;42.66;99276.00;4472718;32;33094;-78
2022/08/06 04:48:55;;;;;;;3.35;1.73;;;;;;;25.21;42.03;99290.50;4463347;32;33153;-79
2022/08/06 04:51:29;;;;;;;4.05;1.90;;;;;;;25.32;41.22;99288.69;4471401;32;33713;-78
2022/08/06 04:54:19;;;;;;;3.53;1.52;;;;;;;25.29;41.91;99298.69;4472456;32;34008;-78
2022/08/06 04:56:55;;;;;;;3.92;1.87;;;;;;;25.09;41.64;99300.25;4468171;32;33295;-79
2022/08/06 04:59:26;;;;;;;11.05;2.40;;;;;;;25.13;41.70;99297.25;4467974;32;32856;-79
2022/08/06 05:02:15;;;;;;;5.00;2.03;;;;;;;25.39;41.88;99296.12;4468672;32;33711;-80
2022/08/06 05:04:46;;;;;;;2.60;1.62;;;;;;;25.61;41.59;99298.72;4481431;32;33527;-78
2022/08/06 05:07:19;;;;;;;2.87;1.52;;;;;;;25.63;41.71;99299.44;4467261;32;35125;-80
2022/08/06 05:09:52;;;;;;;4.28;2.28;;;;;;;25.79;40.99;99298.19;4476541;32;34691;-78
2022/08/06 05:12:26;;;;;;;3.33;1.70;;;;;;;25.77;40.68;99306.28;4466284;32;32307;-80
2022/08/06 05:14:59;;;;;;;4.30;1.80;;;;;;;26.02;40.36;99309.59;4478064;32;33878;-78
2022/08/06 05:17:33;;;;;;;3.90;1.95;;;;;;;26.46;39.66;99307.66;4474242;32;33347;-79
2022/08/06 05:20:11;;;;;;;7.25;2.30;;;;;;;27.05;38.51;99309.66;4475660;32;34189;-80
2022/08/06 05:22:59;;;;;;;3.78;1.67;;;;;;;27.70;37.56;99309.28;4462730;32;33744;-78
2022/08/06 05:25:33;;;;;;;3.75;1.80;;;;;;;28.43;36.24;99317.66;4463804;32;34226;-80
2022/08/06 05:28:04;;;;;;;4.07;2.05;;;;;;;28.75;35.33;99317.31;4463889;32;33238;-80
2022/08/06 05:30:44;;;;;;;4.82;2.05;;;;;;;29.12;35.06;99314.69;4465422;32;33737;-78
2022/08/06 05:33:23;;;;;;;4.03;2.00;;;;;;;29.72;34.22;99316.00;4472930;32;33749;-79
2022/08/06 05:35:54;;;;;;;;;;;;;;;29.84;34.69;99325.50;4480152;32;34536;-78
2022/08/06 05:38:34;;;;;;;5.32;1.75;;;;;;;29.92;34.46;99330.94;4468303;32;33300;-79
2022/08/06 05:41:07;;;;;;;3.28;1.73;;;;;;;30.03;34.26;99327.16;4472125;32;32908;-79
2022/08/06 05:43:38;;;;;;;5.35;2.00;;;;;;;29.97;35.10;99323.28;4465992;32;33739;-79
2022/08/06 05:46:30;;;;;;;3.42;1.90;;;;;;;29.51;36.90;99333.16;4470668;31;34391;-78
2022/08/06 05:49:05;;;;;;;3.00;1.55;;;;;;;29.45;37.36;99335.59;4465312;32;31721;-78
2022/08/06 05:51:59;;;;;;;3.35;2.00;;;;;;;29.40;38.07;99329.84;4475287;32;33891;-79
2022/08/06 05:54:33;;;;;;;3.33;1.80;;;;;;;29.16;38.78;99328.56;4463196;32;34833;-79
2022/08/06 05:57:11;;;;;;;3.75;1.75;;;;;;;29.10;38.59;99331.84;4472466;32;32817;-78
2022/08/06 05:59:48;;;;;;;3.30;1.85;;;;;;;29.34;38.67;99329.47;4467069;32;34200;-80
2022/08/06 06:02:28;;;;;;;3.15;1.80;;;;;;;29.47;38.08;99331.78;4463442;32;33745;-80
2022/08/06 06:05:00;;;;;;;3.15;1.77;;;;;;;29.22;38.73;99325.31;4463277;32;33804;-79
2022/08/06 06:07:49;;;;;;;2.30;1.60;;;;;;;29.19;38.99;99330.09;4464506;32;33779;-79
2022/08/06 06:10:40;;;;;;;4.12;2.00;;;;;;;29.10;39.50;99335.34;4474291;31;33421;-79
2022/08/06 06:13:23;;;;;;;3.72;1.98;;;;;;;28.83;39.57;99332.63;4465133;32;34391;-79
2022/08/06 06:16:16;;;;;;;6.35;2.30;;;;;;;28.43;39.88;99323.00;4470841;32;33996;-78
2022/08/06 06:19:15;;;;;;;5.22;3.35;;;;;;;28.12;40.43;99333.00;4469260;32;33920;-79
2022/08/06 06:21:52;;;;;;;3.90;1.90;;;;;;;27.97;39.08;99332.59;4468914;32;33577;-78
2022/08/06 06:24:26;;;;;;;4.30;1.90;;;;;;;27.86;39.13;99331.75;4478258;32;31990;-78
2022/08/06 06:27:00;;;;;;;3.22;2.17;;;;;;;27.99;37.68;99339.47;4468796;32;32426;-79
2022/08/06 06:29:39;;;;;;;2.72;1.87;;;;;;;27.85;37.41;99331.88;4467386;32;33611;-79
2022/08/06 06:32:36;;;;;;;1.98;1.25;;;;;;;28.04;37.65;99334.56;4462622;32;33061;-79
2022/08/06 06:35:21;;;;;;;5.40;2.28;;;;;;;27.84;37.08;99336.38;4466848;32;34406;-78
2022/08/06 06:37:57;;;;;;;3.53;1.70;;;;;;;28.17;36.10;99344.94;4467722;31;34135;-79
2022/08/06 06:40:42;;;;;;;3.67;1.60;;;;;;;27.93;36.69;99348.00;4466175;32;34012;-78
2022/08/06 06:43:25;;;;;;;3.30;1.62;;;;;;;28.20;36.39;99346.50;4474108;32;33604;-80
2022/08/06 06:46:18;;;;;;;7.32;1.90;;;;;;;28.25;36.02;99354.91;4487521;31;33726;-80
2022/08/06 06:49:13;;;;;;;4.70;2.20;;;;;;;28.41;36.26;99363.16;4479101;31;33774;-80
2022/08/06 06:52:06;;;;;;;2.55;1.50;;;;;;;28.57;35.87;99357.28;4476470;31;33651;-79
2022/08/06 06:54:41;;;;;;;4.07;2.00;;;;;;;28.88;36.11;99357.91;4469866;31;32939;-79
2022/08/06 06:57:19;;;;;;;4.03;2.10;;;;;;;28.76;35.39;99363.56;4473417;31;32973;-78
2022/08/06 06:59:55;;;;;;;2.65;1.70;;;;;;;28.78;35.41;99359.75;4468700;31;33796;-81
2022/08/06 07:02:48;;;;;;;3.95;1.80;;;;;;;28.62;35.96;99363.03;4475382;31;33926;-78
2022/08/06 07:05:17;;;;;;;3.15;1.77;;;;;;;28.72;36.14;99360.31;4473141;31;33506;-79
2022/08/06 07:08:07;;;;;;;2.67;1.55;;;;;;;28.69;36.23;99369.47;4472935;31;34595;-78
2022/08/06 07:10:40;;;;;;;4.20;2.08;;;;;;;28.78;36.36;99364.25;4479762;31;34318;-78
2022/08/06 07:13:10;;;;;;;4.40;2.20;;;;;;;28.92;35.97;99355.75;4469006;31;34372;-79
2022/08/06 07:15:51;;;;;;;3.83;2.17;;;;;;;28.75;36.05;99362.69;4474941;32;32443;-79
2022/08/06 07:18:26;;;;;;;4.47;2.15;;;;;;;28.71;36.48;99362.16;4462612;32;33685;-78
2022/08/06 07:21:03;;;;;;;3.87;2.55;;;;;;;28.96;35.64;99364.34;4465239;32;34435;-79
2022/08/06 07:23:36;;;;;;;2.70;1.62;;;;;;;29.08;35.94;99365.88;4477019;31;34881;-79
2022/08/06 07:26:25;;;;;;;2.92;1.70;;;;;;;29.01;36.14;99365.56;4472500;32;33284;-79
2022/08/06 07:28:54;;;;;;;3.62;2.10;;;;;;;29.25;35.51;99378.44;4466682;32;33765;-80
2022/08/06 07:31:31;;;;;;;3.20;2.03;;;;;;;29.12;35.33;99377.94;4468895;32;33815;-80
2022/08/06 07:34:08;;;;;;;3.70;1.90;;;;;;;29.15;34.86;99372.31;4472820;32;34470;-79
2022/08/06 07:36:40;;;;;;;2.95;1.77;;;;;;;29.11;34.97;99379.75;4459946;32;33259;-79
2022/08/06 07:39:28;;;;;;;6.07;2.08;;;;;;;29.10;35.12;99379.91;4471424;31;34413;-79
2022/08/06 07:42:02;;;;;;;10.27;1.85;;;;;;;29.12;35.36;99377.94;4483579;31;34338;-80
2022/08/06 07:44:44;;;;;;;4.55;2.10;;;;;;;29.33;35.55;99381.22;4479602;31;34351;-81
2022/08/06 07:47:28;;;;;;;3.55;1.98;;;;;;;29.47;35.03;99376.37;4465868;31;33958;-80
2022/08/06 07:50:15;;;;;;;5.70;1.85;;;;;;;29.52;34.88;99376.75;4469415;31;33933;-79
2022/08/06 07:52:45;;;;;;;2.92;1.76;;;;;;;29.51;34.84;99383.09;4472344;31;35620;-79
2022/08/06 07:55:14;;;;;;;3.97;2.00;;;;;;;29.62;35.47;99380.22;4469954;32;33502;-78
2022/08/06 07:57:44;;;;;;;4.03;2.67;;;;;;;29.76;34.55;99377.06;4473212;31;33245;-79
2022/08/06 08:00:29;;;;;;;2.95;1.75;;;;;;;29.85;34.72;99379.84;4474228;31;34493;-79
2022/08/06 08:06:22;;;;;;;5.72;2.33;;;;;;;29.77;34.91;99377.91;4478932;31;33735;-80
2022/08/06 08:08:56;;;;;;;4.03;2.10;;;;;;;29.81;34.55;99384.63;4478471;31;34275;-81
2022/08/06 08:11:25;;;;;;;3.78;1.95;;;;;;;30.07;34.31;99373.19;4480614;31;33062;-81
2022/08/06 08:14:16;;;;;;;3.80;2.08;;;;;;;30.41;34.50;99381.38;4481148;31;33660;-80
2022/08/06 08:16:47;;;;;;;3.53;1.92;;;;;;;30.36;34.03;99378.31;4489001;31;34681;-80
2022/08/06 08:19:23;;;;;;;4.55;2.12;;;;;;;30.32;34.60;99384.97;4486512;31;32869;-79
2022/08/06 08:21:56;;;;;;;3.22;1.87;;;;;;;30.44;33.22;99383.72;4475417;31;33728;-80
2022/08/06 08:24:25;;;;;;;5.60;2.08;;;;;;;30.32;34.31;99372.41;4481581;31;33701;-80
2022/08/06 08:26:54;;;;;;;3.47;1.85;;;;;;;30.80;32.71;99375.63;4484099;31;34032;-80
2022/08/06 08:29:43;;;;;;;3.78;1.80;;;;;;;30.81;32.68;99380.81;4479373;32;34315;-79
2022/08/06 08:32:25;;;;;;;2.90;1.62;;;;;;;31.12;32.33;99377.69;4464241;32;33906;-79
2022/08/06 08:34:54;;;;;;;3.33;1.80;;;;;;;31.12;32.82;99380.38;4472690;31;34738;-79
2022/08/06 08:37:26;;;;;;;3.72;2.22;;;;;;;31.52;32.01;99370.00;4469264;31;33959;-79
2022/08/06 08:40:00;;;;;;;3.95;1.90;;;;;;;31.64;31.34;99369.53;4483393;31;33907;-80
2022/08/06 08:42:33;;;;;;;4.75;1.45;;;;;;;31.70;31.75;99370.69;4467683;32;33965;-80
2022/08/06 08:45:05;;;;;;;3.62;2.12;;;;;;;31.82;31.41;99372.09;4465358;32;32048;-81
2022/08/06 08:47:45;;;;;;;3.33;1.58;;;;;;;31.98;30.69;99370.47;4464756;32;34728;-79
2022/08/06 08:50:28;;;;;;;3.95;1.90;;;;;;;31.80;31.23;99370.53;4485384;31;33902;-81
2022/08/06 08:53:05;;;;;;;3.60;2.00;;;;;;;31.95;31.02;99370.81;4467952;32;33442;-81
2022/08/06 08:55:36;;;;;;;3.12;1.60;;;;;;;32.15;30.95;99382.88;4480350;31;33088;-79
2022/08/06 08:58:27;;;;;;;2.37;1.62;;;;;;;32.38;30.95;99383.06;4478412;31;33452;-79
2022/08/06 09:01:12;;;;;;;2.10;1.37;;;;;;;32.27;30.61;99380.72;4476883;32;32280;-79
2022/08/06 09:04:03;;;;;;;3.20;1.77;;;;;;;32.30;29.56;99378.50;4478464;31;33552;-80
2022/08/06 09:06:32;;;;;;;4.30;1.62;;;;;;;32.61;29.24;99375.19;4464942;32;34614;-81
2022/08/06 09:09:08;;;;;;;2.65;1.55;;;;;;;32.82;29.25;99376.50;4474096;32;33729;-80
2022/08/06 09:11:44;;;;;;;2.47;1.50;;;;;;;32.78;29.36;99375.16;4469029;32;33052;-79
2022/08/06 09:14:33;;;;;;;3.08;1.90;;;;;;;32.76;29.47;99382.53;4469514;32;34168;-80
2022/08/06 09:17:03;;;;;;;3.83;1.75;;;;;;;32.75;29.05;99386.25;4471625;32;33915;-80
2022/08/06 09:19:33;;;;;;;3.33;1.70;;;;;;;32.75;28.93;99383.56;4471906;32;34506;-81
2022/08/06 09:22:09;;;;;;;3.87;1.98;;;;;;;32.92;28.92;99382.50;4482077;31;34079;-82
2022/08/06 09:24:40;;;;;;;2.10;1.50;;;;;;;32.84;28.52;99386.06;4468399;31;33715;-81
2022/08/06 09:27:10;;;;;;;3.50;1.77;;;;;;;33.06;28.64;99381.84;4467762;31;34011;-78
2022/08/06 09:30:03;;;;;;;2.95;1.73;;;;;;;33.13;27.63;99376.63;4470835;32;34673;-79
2022/08/06 09:32:52;;;;;;;4.30;2.00;;;;;;;33.22;28.01;99377.41;4470582;32;33413;-78
2022/08/06 09:35:25;;;;;;;3.37;1.90;;;;;;;33.50;27.21;99373.25;4471737;31;33469;-78
2022/08/06 09:38:14;;;;;;;3.25;1.92;;;;;;;33.40;27.73;99369.94;4469307;32;34015;-79
2022/08/06 09:41:04;;;;;;;2.40;1.62;;;;;;;33.57;27.92;99365.34;4463141;32;32894;-78
2022/08/06 09:43:35;;;;;;;2.62;1.65;;;;;;;33.77;27.42;99369.25;4466796;32;33618;-79
2022/08/06 09:46:36;;;;;;;3.22;1.80;;;;;;;33.93;27.17;99372.88;4466017;31;33899;-77
2022/08/06 09:49:06;;;;;;;4.18;2.17;;;;;;;33.95;27.14;99362.72;4481609;31;33943;-78
2022/08/06 09:52:14;;;;;;;3.53;1.50;;;;;;;33.93;27.53;99364.78;4477517;31;34630;-78
2022/08/06 09:54:46;;;;;;;2.08;1.52;;;;;;;34.11;27.63;99381.50;4474844;31;33246;-80
2022/08/06 09:57:25;;;;;;;2.80;1.80;;;;;;;34.05;27.32;99368.75;4462729;32;33860;-78
2022/08/06 10:00:05;;;;;;;3.35;1.70;;;;;;;34.16;27.46;99372.88;4469876;32;34121;-78
2022/08/06 10:02:43;;;;;;;2.58;1.60;;;;;;;34.16;27.72;99367.50;4480562;32;34203;-80
2022/08/06 10:05:20;;;;;;;2.62;1.73;;;;;;;34.49;26.75;99373.44;4463420;32;33992;-80
2022/08/06 10:08:05;;;;;;;4.12;1.65;;;;;;;34.45;26.99;99360.53;4473406;32;34001;-78
2022/08/06 10:10:44;;;;;;;1.87;1.30;;;;;;;34.22;26.91;99365.97;4471716;32;34061;-78
2022/08/06 10:13:20;;;;;;;3.10;1.70;;;;;;;34.27;27.14;99371.62;4477671;32;34089;-80
2022/08/06 10:15:51;;;;;;;2.97;1.67;;;;;;;34.16;27.06;99371.03;4485173;31;33649;-79
2022/08/06 10:18:34;;;;;;;2.87;1.70;;;;;;;34.73;26.94;99360.78;4472689;31;33814;-80
2022/08/06 10:21:25;;;;;;;5.65;1.98;;;;;;;34.59;26.71;99362.41;4473587;31;34737;-79
2022/08/06 10:23:56;;;;;;;2.95;1.67;;;;;;;34.71;26.49;99369.06;4479114;31;33521;-78
2022/08/06 10:26:27;;;;;;;4.18;2.05;;;;;;;34.67;26.95;99367.75;4477798;31;33339;-79
2022/08/06 10:29:07;;;;;;;3.03;1.75;;;;;;;34.61;26.83;99361.22;4479515;31;34151;-79
2022/08/06 10:31:37;;;;;;;3.17;1.85;;;;;;;34.71;27.53;99360.13;4478587;31;33659;-79
2022/08/06 10:34:10;;;;;;;4.60;1.92;;;;;;;34.73;26.85;99353.53;4474301;31;34134;-77
2022/08/06 10:36:41;;;;;;;3.85;1.70;;;;;;;34.73;26.70;99364.31;4481335;31;33649;-78
2022/08/06 10:39:11;;;;;;;3.20;1.95;;;;;;;34.67;26.68;99365.03;4475193;32;34794;-79
2022/08/06 10:42:01;;;;;;;3.15;1.87;;;;;;;34.63;26.91;99361.91;4478247;31;34559;-78
2022/08/06 10:44:40;;;;;;;2.83;1.67;;;;;;;34.77;27.05;99368.34;4468383;31;34639;-79
2022/08/06 10:47:10;;;;;;;3.75;1.65;;;;;;;35.07;27.02;99362.94;4474602;32;33752;-78
2022/08/06 10:49:46;;;;;;;4.07;2.10;;;;;;;35.26;25.73;99369.66;4467171;32;33833;-79
2022/08/06 10:52:35;;;;;;;4.05;1.90;;;;;;;35.32;26.40;99362.66;4468165;32;33778;-81
2022/08/06 10:55:06;;;;;;;4.82;2.65;;;;;;;35.25;25.78;99351.78;4475222;31;32731;-80
2022/08/06 10:57:35;;;;;;;2.97;1.80;;;;;;;35.19;26.13;99361.47;4463890;31;33894;-79
2022/08/06 11:00:08;;;;;;;2.75;1.50;;;;;;;35.17;25.91;99360.81;4468077;32;33437;-80
2022/08/06 11:02:46;;;;;;;3.08;1.70;;;;;;;35.32;25.96;99365.34;4461767;31;33103;-78
2022/08/06 11:05:27;;;;;;;3.60;1.92;;;;;;;35.28;26.13;99361.34;4464995;32;33908;-79
2022/08/06 11:08:36;;;;;;;5.47;2.25;;;;;;;35.25;26.45;99358.03;4466055;32;33352;-80
2022/08/06 11:11:31;;;;;;;4.10;1.95;;;;;;;34.99;26.89;99352.25;4466072;32;32396;-78
2022/08/06 11:14:09;;;;;;;4.43;2.50;;;;;;;35.04;26.08;99328.28;4462142;32;33955;-79
2022/08/06 11:16:56;;;;;;;3.65;1.87;;;;;;;34.96;25.82;99350.75;4468847;32;34433;-81
2022/08/06 11:19:39;;;;;;;3.40;1.92;;;;;;;35.45;24.68;99357.44;4468806;32;32890;-82
2022/08/06 11:22:36;;;;;;;5.32;2.28;;;;;;;35.74;26.49;99350.28;4468441;32;34852;-80
2022/08/06 11:25:09;;;;;;;3.22;1.90;;;;;;;35.86;26.93;99346.09;4465061;32;34054;-81
2022/08/06 11:27:56;;;;;;;3.85;2.28;;;;;;;35.66;27.03;99343.16;4463623;32;33993;-80
2022/08/06 11:30:42;;;;;;;3.17;2.00;;;;;;;35.81;27.16;99352.06;4460729;32;36076;-78
2022/08/06 11:33:16;;;;;;;3.40;1.80;;;;;;;35.89;26.45;99343.00;4463860;32;33715;-81
2022/08/06 11:35:48;;;;;;;4.50;2.20;;;;;;;35.73;27.22;99335.12;4463623;32;34762;-79
2022/08/06 11:38:59;;;;;;;3.83;2.12;;;;;;;35.64;27.43;99335.28;4465166;32;33838;-80
2022/08/06 11:41:48;;;;;;;4.37;2.40;;;;;;;35.74;27.16;99332.25;4467582;31;33548;-79
2022/08/06 11:44:29;;;;;;;3.90;1.90;;;;;;;35.51;27.65;99328.84;4474201;31;33558;-79
2022/08/06 11:47:12;;;;;;;3.80;2.05;;;;;;;35.41;27.88;99334.56;4473009;31;34076;-77
2022/08/06 11:49:46;;;;;;;3.08;2.12;;;;;;;35.44;28.89;99328.78;4461764;31;33892;-76
2022/08/06 11:52:40;;;;;;;4.18;2.25;;;;;;;35.27;29.20;99330.84;4463541;32;33238;-76
2022/08/06 11:55:11;;;;;;;6.60;2.53;;;;;;;35.19;29.07;99344.47;4472819;31;33771;-76
2022/08/06 11:58:22;;;;;;;4.37;2.35;;;;;;;34.97;29.59;99336.25;4469776;31;34597;-76
2022/08/06 12:00:59;;;;;;;4.60;2.10;;;;;;;34.72;29.91;99345.63;4476999;32;34032;-76
2022/08/06 12:03:38;;;;;;;;;;;;;;;34.53;30.51;99361.28;4470022;31;34234;-77
2022/08/06 12:06:24;;;;;;;3.90;2.00;;;;;;;34.38;30.60;99328.94;4478142;32;34038;-77
2022/08/06 12:09:08;;;;;;;3.92;2.50;;;;;;;34.19;31.04;99351.84;4463055;32;34061;-77
2022/08/06 12:11:40;;;;;;;5.75;2.45;;;;;;;34.65;30.70;99339.31;4479202;31;33675;-78
2022/08/06 12:14:41;;;;;;;4.35;2.25;;;;;;;34.55;30.56;99351.16;4477785;32;32322;-77
2022/08/06 12:17:17;;;;;;;4.07;2.30;;;;;;;34.72;30.86;99343.75;4468657;31;33431;-76
2022/08/06 12:19:50;;;;;;;5.47;2.85;;;;;;;34.90;30.28;99347.97;4461822;32;34776;-78
2022/08/06 12:22:34;;;;;;;6.12;2.80;;;;;;;35.07;30.92;99344.06;4460160;32;33791;-76
2022/08/06 12:25:05;;;;;;;4.57;2.20;;;;;;;34.73;30.47;99348.16;4470007;32;33775;-77
2022/08/06 12:27:39;;;;;;;4.87;2.33;;;;;;;34.82;30.37;99357.00;4463739;32;33554;-77
2022/08/06 12:30:19;;;;;;;4.87;2.53;;;;;;;35.00;30.25;99349.34;4467882;32;34120;-76
2022/08/06 12:33:08;;;;;;;6.75;3.35;;;;;;;34.95;30.21;99350.94;4467186;32;33308;-79